Pimenta Bueno, Brazil
Current Conditions -  °F | °C
As of 2:00 PM on Tuesday 21 Oct 2014 (Local Time) from SBVH Reporting Station
Scattered Clouds Scattered Clouds  
Wind Chill: 84°   Ceiling: Unl
Heat Index: 90°   Visibility: 6mi
Dew Point: 72°   Wind: 8mph
Humidity: 66%   Direction: 220°SW
Pressure: 29.94"   Gusts: NA
Location:  11.64°S, 61.21°W
Report Text: SBVH 211800Z 22007KT 9999 SCT020 FEW025TCU 29/22 Q1014
Loading
Personal Weather Stations






























Interactive Weather Map
Tropical Storm Tracking
New forecast layout! Learn more

10-Day Weather Forecast

Advertisements
Track Severe Weather on mobile